Tipton, United Kingdom
Current Conditions -  °F | °C
As of 4:50 AM on Saturday 20 Dec 2014 (Local Time) from EGBB Reporting Station
Broken Clouds Broken Clouds  
Wind Chill: 39°   Ceiling: 4200
Heat Index: 45°   Visibility: 6mi
Dew Point: 36°   Wind: 12mph
Humidity: 71%   Direction: 260°W
Pressure: 30.15"   Gusts: NA
Location:  52.54°N, 2.04°W
Report Text: EGBB 200450Z 26010KT 9999 BKN042 07/02 Q1021
Loading
Personal Weather Stations






























Interactive Weather Map New forecast layout! Learn more

10-Day Weather Forecast

Advertisements
Track Severe Weather on mobile